Tiempo atmosférico en la estación meteorológica de Chipiona, Cádiz (10 m.)



Fecha
DESCASC
Temp. máxima en grados centígrados (hora)
DESCASC
Temp. mínima en grados centígrados (hora)
DESCASC
Temp. media en grados centígrados
DESCASC
Racha de viento máxima en m/sg (hora)
DESCASC
Velocidad máxima media en intervalos de 10 minutos(hora)
DESCASC
Precipitaciones diarias en mm
DESCASC
Precipitaciones de 00:00 a 06:00 en mm
DESCASC
Precipitaciones de 06:00 a 12:00 en mm
DESCASC
Precipitaciones de 12:00 a 18:00 en mm
DESCASC
Precipitaciones de 18:00 a 24:00 en mm
DESCASC
29-10-2020 27 (16:10) 12.3 (06:50) 19.7 6.11 (09:30) 3.06 (09:50) 0 0 0 0 0
28-10-2020 22.5 (15:50) 11.8 (06:10) 17.2 7.22 (13:10) 3.61 (13:50) 0 0 0 0 0
27-10-2020 18.8 (16:20) 9.3 (00:00) 14 5.56 (20:00) 3.61 (14:30) 0 0 0 0 0
26-10-2020 19 (16:30) 15.4 (00:00) 17.2 11.11 (02:00) 7.5 (02:00) 0.2 0.2 0 0 0
25-10-2020 21.4 (14:40) 11.7 (00:00) 16.5 13.06 (22:50) 7.78 (22:50) 1.8 0 0 0 1.8
24-10-2020 21.9 (14:40) 12.9 (00:00) 17.4 5.83 (15:00) 3.89 (17:00) 0 0 0 0 0
23-10-2020 21.6 (16:50) 13.4 (00:00) 17.5 5 (18:00) 3.33 (17:10) 0.4 0.4 0 0 0
22-10-2020 22.2 (16:20) 16.3 (00:00) 19.3 15.28 (02:10) 7.78 (02:10) 1.2 1.2 0 0 0
21-10-2020 23.4 (15:30) 17.6 (00:00) 20.5 10.28 (19:00) 5.56 (03:30) 9 3.6 0 0 5.4
20-10-2020 25.1 (14:20) 17.7 (00:00) 21.4 25.28 (21:10) 10.83 (17:10) 7.6 0 0 0.4 7.2
19-10-2020 27.1 (15:30) 18.6 (00:00) 22.9 16.67 (11:50) 10.28 (12:20) 0 0 0 0 0
18-10-2020 27.3 (16:20) 10.3 (00:00) 18.8 8.89 (16:30) 5.28 (15:00) 0 0 0 0 0
17-10-2020 21.8 (15:00) 8.9 (00:00) 15.3 6.67 (15:30) 4.44 (15:10) 0 0 0 0 0
16-10-2020 22.7 (14:00) 9.4 (00:00) 16.1 5.56 (15:30) 3.33 (17:40) 0 0 0 0 0
15-10-2020 20.4 (16:50) 10.2 (00:00) 15.3 7.78 (01:40) 4.72 (17:30) 0 0 0 0 0
14-10-2020 20.1 (16:40) 14.2 (00:00) 17.2 11.11 (06:30) 6.67 (15:00) 0 0 0 0 0
13-10-2020 25.2 (14:40) 9.1 (00:00) 17.2 6.67 (15:10) 5 (15:00) 0 0 0 0 0
12-10-2020 26.6 (17:20) 13.4 (00:00) 20 11.67 (06:30) 6.39 (06:50) 0 0 0 0 0
11-10-2020 23.7 (13:50) 14.7 (00:00) 19.2 5.83 (16:10) 4.72 (16:40) 0 0 0 0 0
10-10-2020 24.5 (14:00) 15.6 (00:00) 20.1 5.83 (15:00) 4.17 (16:10) 0 0 0 0 0
09-10-2020 27 (15:00) 14.6 (00:00) 20.8 5 (15:30) 3.33 (15:30) 0 0 0 0 0
08-10-2020 32.2 (14:50) 15 (00:00) 23.6 9.72 (15:40) 6.11 (15:10) 0 0 0 0 0
07-10-2020 28.2 (13:50) 13.3 (00:00) 20.8 5.56 (12:20) 3.61 (15:10) 0 0 0 0 0
06-10-2020 27.4 (15:20) 13.9 (00:00) 20.6 7.5 (15:40) 4.44 (17:00) 0 0 0 0 0
05-10-2020 21.9 (17:30) 15.3 (00:00) 18.6 9.44 (03:30) 6.39 (15:20) 0 0 0 0 0
04-10-2020 21.7 (17:30) 11.4 (00:00) 16.6 8.89 (18:00) 6.39 (18:10) 0 0 0 0 0
03-10-2020 21.3 (17:30) 15.1 (00:00) 18.2 12.5 (05:00) 7.78 (01:00) 0 0 0 0 0
02-10-2020 23.4 (15:40) 18 (00:00) 20.7 17.22 (16:40) 11.11 (16:30) 0 0 0 0 0
01-10-2020 24 (16:00) 17.1 (00:00) 20.6 12.22 (18:10) 8.06 (18:50) 0 0 0 0 0
30-09-2020 25.9 (15:10) 17.7 (00:00) 21.8 7.22 (16:10) 4.72 (18:00) 0 0 0 0 0

Gráficas

Temp. máximas Temp. mínimas Temp. medias Precipitaciones Rachas de viento máximas Velocidades máximas media en intervalos de 10 minutos

Datos horarios

Fecha y hora oficial Temperatura (ºC) Velocidad del viento (km/h) Dirección del viento Racha (km/h) Dirección de racha Precipitación (mm) Presión (hPa) Tendencia (hPa) Humedad (%)
2020-10-29 23:00:00 14.2 0 Calma 6 Este 0 -- -- 73
2020-10-29 22:00:00 15.4 4 Este 6 Sudeste 0 -- -- 67
2020-10-29 21:00:00 17.1 4 Este 9 Este 0 -- -- 54
2020-10-29 20:00:00 18.2 4 Sudeste 8 Sudeste 0 -- -- 59
2020-10-29 19:00:00 20.9 3 Oeste 8 Sudoeste 0 -- -- 70
2020-10-29 18:00:00 24.4 4 Sudoeste 12 Sudoeste 0 -- -- 53
2020-10-29 17:00:00 25.5 4 Norte 11 Oeste 0 -- -- 53
2020-10-29 16:00:00 26.9 6 Este 17 Este 0 -- -- 39
2020-10-29 15:00:00 25 6 Norte 13 Nordeste 0 -- -- 51
2020-10-29 14:00:00 23.6 5 Nordeste 15 Nordeste 0 -- -- 58
2020-10-29 13:00:00 21.7 6 Nordeste 15 Norte 0 -- -- 63
2020-10-29 12:00:00 19.5 8 Norte 14 Norte 0 -- -- 70
2020-10-29 11:00:00 18.2 7 Nordeste 15 Nordeste 0 -- -- 73
2020-10-29 10:00:00 16.3 10 Nordeste 22 Nordeste 0 -- -- 81
2020-10-29 09:00:00 14.4 5 Nordeste 14 Nordeste 0 -- -- 91
2020-10-29 08:00:00 12.5 4 Norte 8 Norte 0 -- -- 94
2020-10-29 07:00:00 12.3 3 Norte 5 Norte 0 -- -- 92
2020-10-29 06:00:00 13.4 0 Calma 12 Norte 0 -- -- 89
2020-10-29 05:00:00 14.8 9 Nordeste 17 Nordeste 0 -- -- 86
2020-10-29 04:00:00 14.8 8 Nordeste 13 Nordeste 0 -- -- 88
2020-10-29 03:00:00 14.5 4 Norte 13 Nordeste 0 -- -- 93
2020-10-29 02:00:00 14.7 4 Norte 10 Norte 0 -- -- 93
2020-10-29 01:00:00 15.2 3 Norte 6 Nordeste 0 -- -- 92
2020-10-29 00:00:00 15.9 3 Norte 5 Norte 0 -- -- 93
2020-10-28 23:00:00 17 0 Calma 8 Noroeste 0 -- -- 92
2020-10-28 22:00:00 17.7 5 Noroeste 14 Noroeste 0 -- -- 91
2020-10-28 21:00:00 17.9 6 Noroeste 14 Noroeste 0 -- -- 88
2020-10-28 20:00:00 18 7 Noroeste 13 Noroeste 0 -- -- 86
2020-10-28 19:00:00 18 8 Noroeste 12 Noroeste 0 -- -- 84
2020-10-28 18:00:00 19.1 7 Noroeste 15 Noroeste 0 -- -- 76
2020-10-28 17:00:00 19.8 10 Noroeste 20 Oeste 0 -- -- 73
2020-10-28 16:00:00 22.4 11 Norte 23 Nordeste 0 -- -- 57
2020-10-28 15:00:00 21.6 10 Norte 25 Norte 0 -- -- 58
2020-10-28 14:00:00 21.5 11 Nordeste 26 Norte 0 -- -- 56
2020-10-28 13:00:00 20.2 10 Norte 23 Nordeste 0 -- -- 60
2020-10-28 12:00:00 19.3 12 Nordeste 23 Nordeste 0 -- -- 61
2020-10-28 11:00:00 17.6 9 Norte 23 Norte 0 -- -- 66
2020-10-28 10:00:00 15.3 8 Nordeste 19 Norte 0 -- -- 74
2020-10-28 09:00:00 12.7 6 Norte 15 Nordeste 0 -- -- 83
2020-10-28 08:00:00 11.8 9 Nordeste 20 Nordeste 0 -- -- 84
2020-10-28 07:00:00 12 10 Nordeste 17 Nordeste 0 -- -- 82
2020-10-28 06:00:00 11.9 5 Nordeste 13 Nordeste 0 -- -- 85
2020-10-28 05:00:00 12.1 2 Norte 9 Nordeste 0 -- -- 88
2020-10-28 04:00:00 12.1 3 Nordeste 8 Nordeste 0 -- -- 88
2020-10-28 03:00:00 13 4 Norte 13 Norte 0 -- -- 83
2020-10-28 02:00:00 14.7 5 Norte 12 Norte 0 -- -- 76
2020-10-28 01:00:00 16.6 7 Noroeste 20 Noroeste 0 -- -- 72
2020-10-28 00:00:00 16.8 12 Noroeste 19 Oeste 0 -- -- 79
2020-10-27 23:00:00 16.8 10 Oeste 17 Oeste 0 -- -- 76
2020-10-27 22:00:00 16.8 10 Oeste 17 Oeste 0 -- -- 74
2020-10-27 21:00:00 16.8 10 Oeste 19 Oeste 0 -- -- 74
2020-10-27 20:00:00 16.9 13 Oeste 20 Oeste 0 -- -- 69
2020-10-27 19:00:00 16.7 10 Oeste 16 Oeste 0 -- -- 69
2020-10-27 18:00:00 18.1 9 Oeste 17 Oeste 0 -- -- 60
2020-10-27 17:00:00 18.7 12 Oeste 20 Oeste 0 -- -- 60
2020-10-27 16:00:00 18.7 13 Oeste 19 Oeste 0 -- -- 59
2020-10-27 15:00:00 18.7 13 Oeste 18 Oeste 0 -- -- 59
2020-10-27 14:00:00 18.7 11 Oeste 16 Oeste 0 -- -- 57
2020-10-27 13:00:00 18.4 5 Noroeste 12 Norte 0 -- -- 58
2020-10-27 12:00:00 17.2 8 Norte 13 Noroeste 0 -- -- 64
2020-10-27 11:00:00 15.9 6 Norte 14 Nordeste 0 -- -- 69
2020-10-27 10:00:00 14.8 6 Nordeste 12 Nordeste 0 -- -- 68
2020-10-27 09:00:00 11.9 5 Nordeste 10 Nordeste 0 -- -- 83
2020-10-27 08:00:00 9.6 4 Nordeste 7 Nordeste 0 -- -- 90
2020-10-27 07:00:00 9.9 4 Nordeste 8 Nordeste 0 -- -- 87
2020-10-27 06:00:00 11 4 Nordeste 9 Norte 0 -- -- 83
2020-10-27 05:00:00 11.2 2 Norte 8 Nordeste 0 -- -- 83
2020-10-27 04:00:00 11.6 2 Noroeste 9 Noroeste 0 -- -- 83
2020-10-27 03:00:00 12.3 3 Norte 10 Nordeste 0 -- -- 79
2020-10-27 02:00:00 13.5 4 Norte 9 Norte 0 -- -- 73
2020-10-27 01:00:00 15.5 3 Norte 12 Norte 0 -- -- 71
2020-10-27 00:00:00 16.6 6 Noroeste 17 Noroeste 0 -- -- 62
2020-10-26 23:00:00 16.8 10 Noroeste 22 Noroeste 0 -- -- 60
2020-10-26 22:00:00 16.9 11 Noroeste 22 Oeste 0 -- -- 59
2020-10-26 21:00:00 17 12 Noroeste 23 Oeste 0 -- -- 56
2020-10-26 20:00:00 17.2 12 Noroeste 24 Oeste 0 -- -- 57
2020-10-26 19:00:00 17.4 16 Oeste 24 Oeste 0 -- -- 61
2020-10-26 18:00:00 18.1 15 Oeste 27 Oeste 0 -- -- 61
2020-10-26 17:00:00 18.9 16 Oeste 27 Oeste 0 -- -- 56
2020-10-26 16:00:00 18.6 18 Oeste 33 Oeste 0 -- -- 58
2020-10-26 15:00:00 18.7 21 Oeste 33 Oeste 0 -- -- 58
2020-10-26 14:00:00 18.8 17 Noroeste 30 Oeste 0 -- -- 59
2020-10-26 13:00:00 18.3 15 Noroeste 25 Oeste 0 -- -- 61
2020-10-26 12:00:00 17.4 14 Noroeste 25 Noroeste 0 -- -- 67
2020-10-26 11:00:00 17 14 Noroeste 26 Noroeste 0 -- -- 65
2020-10-26 10:00:00 16.7 12 Noroeste 26 Noroeste 0 -- -- 69
2020-10-26 09:00:00 15.9 13 Noroeste 26 Noroeste 0 -- -- 75
2020-10-26 08:00:00 15.4 13 Noroeste 23 Noroeste 0 -- -- 79
2020-10-26 07:00:00 15.5 10 Noroeste 26 Oeste 0 -- -- 83
2020-10-26 06:00:00 15.7 17 Noroeste 33 Noroeste 0 -- -- 80
2020-10-26 05:00:00 16 14 Noroeste 27 Noroeste 0 -- -- 78
2020-10-26 04:00:00 16.6 15 Noroeste 29 Oeste 0 -- -- 80
2020-10-26 03:00:00 16.9 19 Oeste 39 Oeste 0 -- -- 82
2020-10-26 02:00:00 17.4 27 Oeste 40 Oeste 0 -- -- 82
2020-10-26 01:00:00 16.4 14 Oeste 40 Oeste 0.2 -- -- 95
2020-10-26 00:00:00 16.5 24 Oeste 45 Oeste 1.2 -- -- 96
2020-10-25 23:00:00 18.4 25 Oeste 47 Sudoeste 0.4 -- -- 95
2020-10-25 22:00:00 19.4 18 Sudoeste 46 Sudoeste 0.2 -- -- 90
2020-10-25 21:00:00 19.3 20 Sudoeste 37 Sudoeste 0 -- -- 89
2020-10-25 20:00:00 19.4 18 Sudoeste 33 Sudoeste 0 -- -- 83
2020-10-25 19:00:00 19.6 14 Sudoeste 34 Sudoeste 0 -- -- 81
2020-10-25 18:00:00 19.8 19 Sudoeste 34 Sudoeste 0 -- -- 78
2020-10-25 17:00:00 20.4 16 Sudoeste 31 Sudoeste 0 -- -- 73
2020-10-25 16:00:00 20.5 15 Sudoeste 32 Sudoeste 0 -- -- 75
2020-10-25 15:00:00 21.1 18 Sudoeste 32 Sudoeste 0 -- -- 71
2020-10-25 14:00:00 19.7 5 Sur 12 Oeste 0 -- -- 77
2020-10-25 13:00:00 20.1 6 Sudoeste 13 Sudoeste 0 -- -- 76
2020-10-25 12:00:00 19.1 7 Sudoeste 16 Oeste 0 -- -- 78
2020-10-25 11:00:00 19.4 6 Sudoeste 15 Sudoeste 0 -- -- 78
2020-10-25 10:00:00 18 4 Sudoeste 9 Oeste 0 -- -- 83
2020-10-25 09:00:00 14.3 0 Calma 6 Sudeste 0 -- -- 96
2020-10-25 08:00:00 12.7 4 Sudeste 5 Sudeste 0 -- -- 94
2020-10-25 07:00:00 14.1 2 Oeste 14 Oeste 0 -- -- 88
2020-10-25 06:00:00 15.1 9 Oeste 19 Oeste 0 -- -- 91
2020-10-25 05:00:00 11.7 6 Sudoeste 9 Sudoeste 0 -- -- 97
2020-10-25 04:00:00 12.1 4 Sur 6 Sudeste 0 -- -- 97
2020-10-25 03:00:00 12.2 4 Sudeste 5 Sudeste 0 -- -- 96
2020-10-25 02:00:00 12.6 2 Sudeste 5 Sudeste 0 -- -- 94
2020-10-25 01:00:00 13.5 2 Sudoeste 6 Sudeste 0 -- -- 95
2020-10-25 00:00:00 14.4 5 Sudeste 6 Sudeste 0 -- -- 94
2020-10-24 23:00:00 16.4 4 Sudoeste 12 Oeste 0 -- -- 90
2020-10-24 22:00:00 16.5 6 Oeste 12 Oeste 0 -- -- 89
2020-10-24 21:00:00 17.1 8 Oeste 15 Oeste 0 -- -- 87
2020-10-24 20:00:00 17.2 7 Oeste 14 Sudoeste 0 -- -- 88
2020-10-24 19:00:00 18.1 11 Oeste 18 Oeste 0 -- -- 87
2020-10-24 18:00:00 19.9 13 Oeste 18 Sudoeste 0 -- -- 83
2020-10-24 17:00:00 20.6 14 Oeste 20 Sudoeste 0 -- -- 80
2020-10-24 16:00:00 21.4 10 Sudoeste 21 Sudoeste 0 -- -- 76
2020-10-24 15:00:00 21.9 12 Sur 21 Sudoeste 0 -- -- 73
2020-10-24 14:00:00 20.5 10 Sudoeste 18 Sudoeste 0 -- -- 79
2020-10-24 13:00:00 20 6 Oeste 12 Sudeste 0 -- -- 81
2020-10-24 12:00:00 20.2 5 Sudeste 9 Sudeste 0 -- -- 78
2020-10-24 11:00:00 18.1 6 Sudeste 9 Sudeste 0 -- -- 90
2020-10-24 10:00:00 14.9 5 Este 7 Este 0 -- -- 100
2020-10-24 09:00:00 12.9 3 Este 8 Este 0 -- -- 99
2020-10-24 08:00:00 13 5 Este 8 Este 0 -- -- 99
2020-10-24 07:00:00 13.3 4 Nordeste 8 Este 0 -- -- 99
2020-10-24 06:00:00 13.7 6 Este 9 Este 0 -- -- 99
2020-10-24 05:00:00 13.7 4 Este 6 Este 0 -- -- 98
2020-10-24 04:00:00 14 5 Este 7 Este 0 -- -- 98
2020-10-24 03:00:00 14 4 Este 8 Este 0 -- -- 98
2020-10-24 02:00:00 14 3 Este 5 Este 0 -- -- 96
2020-10-24 01:00:00 14.5 0 Calma 3 Oeste 0 -- -- 96
2020-10-24 00:00:00 14.9 2 Sur 4 Sur 0 -- -- 95
2020-10-23 23:00:00 15.5 2 Sudeste 4 Sudeste 0 -- -- 94
2020-10-23 22:00:00 16.3 2 Sudoeste 5 Sur 0 -- -- 92
2020-10-23 21:00:00 17.3 2 Sur 5 Sur 0 -- -- 89
2020-10-23 20:00:00 18.6 4 Sur 14 Sur 0 -- -- 85
2020-10-23 19:00:00 20.8 8 Sur 18 Sur 0 -- -- 74
2020-10-23 18:00:00 21.4 11 Sur 18 Sur 0 -- -- 70
2020-10-23 17:00:00 21.6 10 Sudoeste 17 Sudoeste 0 -- -- 66
2020-10-23 16:00:00 21.1 10 Oeste 16 Oeste 0 -- -- 69
2020-10-23 15:00:00 21.1 9 Oeste 15 Oeste 0 -- -- 72
2020-10-23 14:00:00 21.1 9 Oeste 14 Oeste 0 -- -- 73
2020-10-23 13:00:00 20.9 5 Sur 11 Sur 0 -- -- 69
2020-10-23 12:00:00 19.7 5 Sudeste 14 Este 0 -- -- 71
2020-10-23 11:00:00 18.6 7 Este 10 Este 0 -- -- 84
2020-10-23 10:00:00 15.8 3 Este 6 Este 0 -- -- 99
2020-10-23 09:00:00 14.3 3 Este 6 Este 0 -- -- 99
2020-10-23 08:00:00 13.6 3 Este 5 Este 0 -- -- 98
2020-10-23 07:00:00 14.1 4 Este 6 Este 0 -- -- 98
2020-10-23 06:00:00 14.4 4 Este 9 Este 0 -- -- 97
2020-10-23 05:00:00 14.8 3 Este 7 Sur 0 -- -- 96
2020-10-23 04:00:00 16 0 Calma 12 Noroeste 0.4 -- -- 95
2020-10-23 03:00:00 14.8 0 Calma 7 Oeste 0 -- -- 95
2020-10-23 02:00:00 15.1 2 Norte 4 Sudeste 0 -- -- 93
2020-10-23 01:00:00 16.2 2 Sur 17 Oeste 0 -- -- 90
2020-10-23 00:00:00 16.9 4 Oeste 8 Oeste 0 -- -- 94
2020-10-22 23:00:00 16.6 3 Sudoeste 7 Sudoeste 0 -- -- 93
2020-10-22 22:00:00 17.2 3 Sudoeste 8 Sudoeste 0 -- -- 89
2020-10-22 21:00:00 17.9 5 Sur 12 Sur 0 -- -- 85
2020-10-22 20:00:00 18.6 4 Sudoeste 13 Sudoeste 0 -- -- 84
2020-10-22 19:00:00 20.3 8 Sudoeste 22 Sudoeste 0 -- -- 76
2020-10-22 18:00:00 21.2 14 Oeste 25 Sudoeste 0 -- -- 76
2020-10-22 17:00:00 22.2 10 Sudoeste 26 Sudoeste 0 -- -- 75
2020-10-22 16:00:00 21.9 11 Sudoeste 22 Sur 0 -- -- 76
2020-10-22 15:00:00 21.8 13 Sur 24 Sudoeste 0 -- -- 81
2020-10-22 14:00:00 20.1 9 Sur 24 Sudeste 0 -- -- 84
2020-10-22 13:00:00 20.2 15 Sur 27 Sur 0 -- -- 90
2020-10-22 12:00:00 19.7 15 Sur 29 Sur 0 -- -- 90
2020-10-22 11:00:00 20.1 11 Sudeste 21 Sudeste 0 -- -- 89
2020-10-22 10:00:00 17.9 5 Sudeste 13 Sudeste 0 -- -- 100
2020-10-22 09:00:00 17.2 8 Sudeste 14 Sudeste 0 -- -- 99
2020-10-22 08:00:00 17.4 11 Sudeste 19 Sudeste 0 -- -- 99
2020-10-22 07:00:00 17.1 11 Sudeste 21 Sudeste 0 -- -- 98
2020-10-22 06:00:00 17.2 11 Sudeste 19 Sudeste 0 -- -- 98
2020-10-22 05:00:00 17.3 10 Sudeste 22 Sur 0 -- -- 97
2020-10-22 04:00:00 17.7 13 Sudeste 26 Sur 0 -- -- 97
2020-10-22 03:00:00 17.6 12 Sudeste 55 Sudeste 1.2 -- -- 97
2020-10-22 02:00:00 18.5 21 Sudeste 47 Sudeste 0 -- -- 93
2020-10-22 01:00:00 18.9 6 Sur 18 Sur 0 -- -- 96
2020-10-22 00:00:00 18.7 6 Sur 17 Sur 0 -- -- 95
2020-10-21 23:00:00 18.9 7 Sur 21 Sur 0 -- -- 94
2020-10-21 22:00:00 19 12 Sur 22 Sudeste 0 -- -- 93
2020-10-21 21:00:00 18.5 8 Sur 17 Sur 0 -- -- 96
2020-10-21 20:00:00 18.2 4 Sudeste 22 Sudeste 0.4 -- -- 93
2020-10-21 19:00:00 18.9 18 Sur 37 Sudoeste 5 -- -- 89
2020-10-21 18:00:00 21.4 12 Sur 28 Sudeste 0 -- -- 81
2020-10-21 17:00:00 21.7 19 Sur 33 Sur 0 -- -- 74
2020-10-21 16:00:00 23.1 15 Sur 32 Sur 0 -- -- 75
2020-10-21 15:00:00 22.9 17 Sur 29 Sur 0 -- -- 73
2020-10-21 14:00:00 22.2 15 Sur 28 Sur 0 -- -- 75
2020-10-21 13:00:00 22 13 Sur 28 Sur 0 -- -- 78
2020-10-21 12:00:00 21.2 13 Sur 24 Sudoeste 0 -- -- 82
2020-10-21 11:00:00 19.8 9 Sur 18 Sudoeste 0 -- -- 87
2020-10-21 10:00:00 19.3 9 Sur 19 Sudoeste 0 -- -- 89
2020-10-21 09:00:00 18.9 11 Sudoeste 24 Sudoeste 0 -- -- 87
2020-10-21 08:00:00 19.1 10 Sudoeste 26 Sudoeste 0 -- -- 88
2020-10-21 07:00:00 19 12 Sudoeste 27 Sur 0 -- -- 90
2020-10-21 06:00:00 19 15 Sudoeste 27 Sur 0 -- -- 93
2020-10-21 05:00:00 18.3 12 Sur 26 Sur 0 -- -- 95
2020-10-21 04:00:00 18 15 Sur 35 Sudoeste 3.6 -- -- 95
2020-10-21 03:00:00 19.2 15 Sur 29 Sur 0 -- -- 93
2020-10-21 02:00:00 19.2 16 Sur 33 Sur 0 -- -- 94
2020-10-21 01:00:00 19.3 14 Sur 31 Sudoeste 0 -- -- 94
2020-10-21 00:00:00 19.3 18 Sur 32 Sudoeste 0 -- -- 93
2020-10-20 23:00:00 18.7 15 Sur 32 Sur 0 -- -- 97
2020-10-20 22:00:00 17.8 15 Sur 91 Sur 5.6 -- -- 97
2020-10-20 21:00:00 20.4 36 Sudeste 58 Sur 0 -- -- 92
2020-10-20 20:00:00 19.8 29 Sudeste 46 Sudeste 0.8 -- -- 90
2020-10-20 19:00:00 20.7 27 Sudeste 44 Sudeste 0.8 -- -- 81
2020-10-20 18:00:00 20.8 32 Sudeste 57 Sudeste 0.4 -- -- 79
2020-10-20 17:00:00 24.6 38 Sudeste 55 Sudeste 0 -- -- 55
2020-10-20 16:00:00 24.3 26 Sudeste 48 Sudeste 0 -- -- 59
2020-10-20 15:00:00 24.4 33 Sudeste 60 Sudeste 0 -- -- 53
2020-10-20 14:00:00 24.8 37 Sudeste 58 Sudeste 0 -- -- 54
2020-10-20 13:00:00 24.4 30 Sudeste 47 Sudeste 0 -- -- 58
2020-10-20 12:00:00 22.6 27 Sudeste 44 Sudeste 0 -- -- 68
2020-10-20 11:00:00 21.4 23 Sudeste 44 Sudeste 0 -- -- 72
2020-10-20 10:00:00 20.3 21 Sudeste 37 Este 0 -- -- 75
2020-10-20 09:00:00 20.1 20 Sudeste 36 Sudeste 0 -- -- 76
2020-10-20 08:00:00 20 22 Sudeste 40 Sudeste 0 -- -- 74
2020-10-20 07:00:00 20.1 22 Sudeste 39 Sudeste 0 -- -- 73
2020-10-20 06:00:00 20 22 Sudeste 43 Sudeste 0 -- -- 74
2020-10-20 05:00:00 19.7 24 Sudeste 42 Sudeste 0 -- -- 77
2020-10-20 04:00:00 19.8 24 Sudeste 40 Sudeste 0 -- -- 76
2020-10-20 03:00:00 20 24 Sudeste 39 Sudeste 0 -- -- 74
2020-10-20 02:00:00 20 20 Sudeste 37 Sudeste 0 -- -- 73
2020-10-20 01:00:00 20 22 Sudeste 35 Sudeste 0 -- -- 74
2020-10-20 00:00:00 20 24 Sudeste 36 Sudeste 0 -- -- 74
2020-10-19 23:00:00 19.9 19 Sudeste 35 Sudeste 0 -- -- 72
2020-10-19 22:00:00 20.3 21 Sudeste 34 Sudeste 0 -- -- 70
2020-10-19 21:00:00 20 19 Sudeste 29 Sudeste 0 -- -- 79
2020-10-19 20:00:00 20.2 15 Sur 27 Sur 0 -- -- 79
2020-10-19 19:00:00 21.4 15 Sur 30 Sur 0 -- -- 74
2020-10-19 18:00:00 24.1 19 Sur 47 Sudeste 0 -- -- 60
2020-10-19 17:00:00 26.1 30 Sudeste 57 Sudeste 0 -- -- 47
2020-10-19 16:00:00 26.5 32 Sudeste 55 Sudeste 0 -- -- 45
2020-10-19 15:00:00 26.3 35 Sudeste 52 Sudeste 0 -- -- 46
2020-10-19 14:00:00 26.7 30 Sudeste 53 Sudeste 0 -- -- 45
2020-10-19 13:00:00 25.4 36 Sudeste 58 Sudeste 0 -- -- 48
2020-10-19 12:00:00 23.9 36 Sudeste 60 Sudeste 0 -- -- 50
2020-10-19 11:00:00 22.3 33 Sudeste 51 Sudeste 0 -- -- 55
2020-10-19 10:00:00 19.9 28 Sudeste 46 Sudeste 0 -- -- 62
2020-10-19 09:00:00 18.9 26 Sudeste 45 Sudeste 0 -- -- 60
2020-10-19 08:00:00 18.6 27 Sudeste 48 Sudeste 0 -- -- 61
2020-10-19 07:00:00 18.6 25 Sudeste 46 Sudeste 0 -- -- 61
2020-10-19 06:00:00 18.8 30 Sudeste 47 Sudeste 0 -- -- 56
2020-10-19 05:00:00 18.8 22 Sudeste 40 Sudeste 0 -- -- 46
2020-10-19 04:00:00 19.3 26 Sudeste 46 Sudeste 0 -- -- 45
2020-10-19 03:00:00 19.2 27 Sudeste 46 Sudeste 0 -- -- 42
2020-10-19 02:00:00 19.1 23 Sudeste 40 Sudeste 0 -- -- 40
2020-10-19 01:00:00 19.2 22 Sudeste 37 Sudeste 0 -- -- 43
2020-10-19 00:00:00 18.6 14 Este 29 Este 0 -- -- 47
2020-10-18 23:00:00 18.7 17 Este 26 Este 0 -- -- 47
2020-10-18 22:00:00 18.7 8 Este 22 Sudeste 0 -- -- 44
2020-10-18 21:00:00 19.9 13 Este 27 Este 0 -- -- 41
2020-10-18 20:00:00 21.5 13 Este 30 Este 0 -- -- 37
2020-10-18 19:00:00 24.5 18 Sudeste 32 Sudeste 0 -- -- 33
2020-10-18 18:00:00 26.2 19 Sudeste 32 Este 0 -- -- 31
2020-10-18 17:00:00 27.1 18 Sudeste 32 Sudeste 0 -- -- 33
2020-10-18 16:00:00 27.1 18 Sudeste 32 Sur 0 -- -- 34
2020-10-18 15:00:00 26.2 19 Sudeste 30 Sudeste 0 -- -- 39
2020-10-18 14:00:00 22.7 7 Oeste 22 Oeste 0 -- -- 53
2020-10-18 13:00:00 22.3 5 Nordeste 14 Este 0 -- -- 51
2020-10-18 12:00:00 19.7 4 Nordeste 11 Este 0 -- -- 58
2020-10-18 11:00:00 17.2 5 Nordeste 15 Este 0 -- -- 62
2020-10-18 10:00:00 13.1 7 Nordeste 15 Nordeste 0 -- -- 81
2020-10-18 09:00:00 10.5 7 Nordeste 10 Nordeste 0 -- -- 91
2020-10-18 08:00:00 10.8 4 Norte 10 Este 0 -- -- 90
2020-10-18 07:00:00 10.8 8 Este 13 Este 0 -- -- 87
2020-10-18 06:00:00 11.3 6 Este 12 Este 0 -- -- 89
2020-10-18 05:00:00 11.1 8 Este 11 Este 0 -- -- 93
2020-10-18 04:00:00 10.8 5 Este 10 Este 0 -- -- 95
2020-10-18 03:00:00 11.2 3 Este 6 Este 0 -- -- 93
2020-10-18 02:00:00 11.8 2 Nordeste 8 Nordeste 0 -- -- 93
2020-10-18 01:00:00 12.1 5 Nordeste 8 Nordeste 0 -- -- 91
2020-10-18 00:00:00 12.7 4 Este 5 Este 0 -- -- 89
2020-10-17 23:00:00 13.3 3 Sudeste 5 Norte 0 -- -- 87
2020-10-17 22:00:00 14.6 3 Norte 4 Norte 0 -- -- 85
2020-10-17 21:00:00 16.1 2 Sudoeste 7 Sudoeste 0 -- -- 80
2020-10-17 20:00:00 17.8 5 Oeste 11 Oeste 0 -- -- 76
2020-10-17 19:00:00 19.9 9 Oeste 16 Oeste 0 -- -- 68
2020-10-17 18:00:00 20.7 13 Oeste 20 Oeste 0 -- -- 62
2020-10-17 17:00:00 20.9 14 Oeste 21 Sudoeste 0 -- -- 64
2020-10-17 16:00:00 21.4 15 Oeste 24 Oeste 0 -- -- 63
2020-10-17 15:00:00 21.8 15 Oeste 20 Sudoeste 0 -- -- 60
2020-10-17 14:00:00 21.4 12 Oeste 19 Oeste 0 -- -- 62
2020-10-17 13:00:00 20.3 7 Oeste 12 Oeste 0 -- -- 64
2020-10-17 12:00:00 20.2 3 Sudeste 9 Sur 0 -- -- 63
2020-10-17 11:00:00 17.8 2 Sudeste 6 Sudeste 0 -- -- 78
2020-10-17 10:00:00 13.1 2 Este 7 Este 0 -- -- 99
2020-10-17 09:00:00 10.1 4 Este 6 Sudeste 0 -- -- 98
2020-10-17 08:00:00 9.5 4 Este 8 Este 0 -- -- 97
2020-10-17 07:00:00 9 3 Este 5 Este 0 -- -- 96
2020-10-17 06:00:00 9.1 3 Este 5 Sudeste 0 -- -- 95
2020-10-17 05:00:00 9.9 2 Este 6 Este 0 -- -- 94
2020-10-17 04:00:00 10.3 3 Este 6 Este 0 -- -- 94
2020-10-17 03:00:00 10.6 2 Sudeste 7 Sudeste 0 -- -- 93
2020-10-17 02:00:00 10.9 5 Sudeste 7 Sudeste 0 -- -- 93
2020-10-17 01:00:00 11.8 3 Sur 9 Sudoeste 0 -- -- 92
2020-10-17 00:00:00 12.6 3 Oeste 8 Oeste 0 -- -- 90
2020-10-16 23:00:00 13.1 4 Sudoeste 6 Sudoeste 0 -- -- 86
2020-10-16 22:00:00 14.4 3 Sur 7 Sudoeste 0 -- -- 86
2020-10-16 21:00:00 16.1 4 Sudoeste 11 Sudoeste 0 -- -- 83
2020-10-16 20:00:00 17.3 8 Sudoeste 13 Sudoeste 0 -- -- 82
2020-10-16 19:00:00 19.3 9 Oeste 18 Sudoeste 0 -- -- 74
2020-10-16 18:00:00 20.4 12 Sudoeste 17 Sudoeste 0 -- -- 69
2020-10-16 17:00:00 21.3 9 Sudoeste 18 Sudoeste 0 -- -- 64
2020-10-16 16:00:00 21.6 10 Sudoeste 20 Sudoeste 0 -- -- 62
2020-10-16 15:00:00 22.4 9 Sur 20 Sur 0 -- -- 55
2020-10-16 14:00:00 22.7 9 Sur 15 Sur 0 -- -- 49
2020-10-16 13:00:00 22 5 Sur 13 Oeste 0 -- -- 57
2020-10-16 12:00:00 19.8 5 Este 15 Nordeste 0 -- -- 65
2020-10-16 11:00:00 16.4 9 Este 16 Nordeste 0 -- -- 68
2020-10-16 10:00:00 12.6 6 Nordeste 12 Nordeste 0 -- -- 78
2020-10-16 09:00:00 9.8 7 Nordeste 13 Nordeste 0 -- -- 89
2020-10-16 08:00:00 9.6 4 Nordeste 8 Norte 0 -- -- 91
2020-10-16 07:00:00 10.2 4 Este 9 Este 0 -- -- 87
2020-10-16 06:00:00 10.1 6 Este 8 Este 0 -- -- 87
2020-10-16 05:00:00 10 4 Este 6 Nordeste 0 -- -- 87
2020-10-16 04:00:00 10.9 2 Nordeste 8 Este 0 -- -- 91
2020-10-16 03:00:00 11.7 4 Este 6 Este 0 -- -- 89
2020-10-16 02:00:00 13.3 4 Oeste 8 Oeste 0 -- -- 86
2020-10-16 01:00:00 15.3 3 Sur 14 Sudoeste 0 -- -- 80
2020-10-16 00:00:00 17.3 10 Oeste 19 Oeste 0 -- -- 75
2020-10-15 23:00:00 17.7 13 Oeste 24 Oeste 0 -- -- 74
2020-10-15 22:00:00 17.2 13 Oeste 21 Oeste 0 -- -- 70
2020-10-15 21:00:00 16.9 9 Sudoeste 15 Sudoeste 0 -- -- 69
2020-10-15 20:00:00 17.4 3 Sudoeste 14 Sudoeste 0 -- -- 61
2020-10-15 19:00:00 18.8 9 Sudoeste 23 Sudoeste 0 -- -- 56
2020-10-15 18:00:00 20.2 15 Oeste 24 Oeste 0 -- -- 55
2020-10-15 17:00:00 20.4 16 Oeste 23 Oeste 0 -- -- 61
2020-10-15 16:00:00 20 16 Oeste 24 Oeste 0 -- -- 59
2020-10-15 15:00:00 19.6 14 Oeste 21 Sudoeste 0 -- -- 61
2020-10-15 14:00:00 19.4 13 Oeste 21 Oeste 0 -- -- 58
2020-10-15 13:00:00 19.5 9 Oeste 13 Oeste 0 -- -- 52
2020-10-15 12:00:00 18.5 3 Este 9 Norte 0 -- -- 49
2020-10-15 11:00:00 16.1 3 Norte 8 Norte 0 -- -- 58
2020-10-15 10:00:00 14 4 Norte 9 Nordeste 0 -- -- 70
2020-10-15 09:00:00 10.2 4 Norte 6 Sudeste 0 -- -- 85
2020-10-15 08:00:00 12.4 0 Calma 8 Noroeste 0 -- -- 77
2020-10-15 07:00:00 13.4 3 Noroeste 8 Noroeste 0 -- -- 74
2020-10-15 06:00:00 13 3 Norte 8 Norte 0 -- -- 77
2020-10-15 05:00:00 15.4 4 Noroeste 18 Noroeste 0 -- -- 70
2020-10-15 04:00:00 15.9 9 Noroeste 22 Oeste 0 -- -- 67
2020-10-15 03:00:00 16.6 12 Noroeste 23 Noroeste 0 -- -- 64
2020-10-15 02:00:00 17.5 15 Noroeste 28 Noroeste 0 -- -- 59
2020-10-15 01:00:00 18.1 15 Noroeste 26 Noroeste 0 -- -- 58
2020-10-15 00:00:00 18.3 13 Oeste 22 Oeste 0 -- -- 67
2020-10-14 23:00:00 18.6 10 Noroeste 17 Oeste 0 -- -- 65
2020-10-14 22:00:00 18.5 12 Oeste 23 Oeste 0 -- -- 71
2020-10-14 21:00:00 18.5 15 Sudoeste 27 Sudoeste 0 -- -- 73
2020-10-14 20:00:00 18.6 16 Sudoeste 31 Sudoeste 0 -- -- 67
2020-10-14 19:00:00 19.5 18 Sudoeste 34 Sudoeste 0 -- -- 66
2020-10-14 18:00:00 20 22 Sudoeste 36 Oeste 0 -- -- 62
2020-10-14 17:00:00 20.1 23 Oeste 35 Oeste 0 -- -- 62
2020-10-14 16:00:00 20 22 Oeste 35 Oeste 0 -- -- 62
2020-10-14 15:00:00 19.3 24 Oeste 34 Oeste 0 -- -- 64
2020-10-14 14:00:00 18.8 22 Oeste 31 Oeste 0 -- -- 67
2020-10-14 13:00:00 18 17 Oeste 26 Oeste 0 -- -- 69
2020-10-14 12:00:00 16.8 15 Noroeste 31 Oeste 0 -- -- 72
2020-10-14 11:00:00 15.7 19 Noroeste 33 Noroeste 0 -- -- 75
2020-10-14 10:00:00 15 22 Noroeste 37 Noroeste 0 -- -- 78
2020-10-14 09:00:00 14.3 17 Noroeste 33 Noroeste 0 -- -- 81
2020-10-14 08:00:00 14.6 17 Noroeste 35 Noroeste 0 -- -- 78
2020-10-14 07:00:00 15.1 21 Noroeste 40 Noroeste 0 -- -- 77
2020-10-14 06:00:00 15.6 21 Noroeste 39 Oeste 0 -- -- 77
2020-10-14 05:00:00 16.5 18 Noroeste 30 Oeste 0 -- -- 79
2020-10-14 04:00:00 17.7 20 Noroeste 31 Oeste 0 -- -- 82
2020-10-14 03:00:00 18.9 15 Oeste 22 Oeste 0 -- -- 84
2020-10-14 02:00:00 19.3 12 Oeste 21 Sudoeste 0 -- -- 83
2020-10-14 01:00:00 19.3 12 Sudoeste 20 Sudoeste 0 -- -- 88
2020-10-14 00:00:00 18.8 9 Oeste 17 Oeste 0 -- -- 80
2020-10-13 23:00:00 18.3 9 Sudoeste 13 Sudoeste 0 -- -- 83
2020-10-13 22:00:00 18.7 8 Oeste 17 Oeste 0 -- -- 82
2020-10-13 21:00:00 19 10 Oeste 15 Oeste 0 -- -- 77
2020-10-13 20:00:00 19.6 10 Oeste 14 Oeste 0 -- -- 67
2020-10-13 19:00:00 21.8 10 Oeste 18 Oeste 0 -- -- 52
2020-10-13 18:00:00 22.1 12 Oeste 19 Oeste 0 -- -- 59
2020-10-13 17:00:00 22 13 Oeste 22 Oeste 0 -- -- 60
2020-10-13 16:00:00 22.1 14 Oeste 24 Oeste 0 -- -- 57
2020-10-13 15:00:00 22.9 18 Oeste 24 Oeste 0 -- -- 56
2020-10-13 14:00:00 24.2 8 Norte 23 Nordeste 0 -- -- 35
2020-10-13 13:00:00 22.8 10 Norte 21 Nordeste 0 -- -- 37
2020-10-13 12:00:00 19.8 8 Nordeste 17 Nordeste 0 -- -- 36
2020-10-13 11:00:00 17.3 8 Nordeste 14 Nordeste 0 -- -- 39
2020-10-13 10:00:00 -- -- -- -- -- -- -- -- --
2020-10-13 09:00:00 9.9 0 Calma 6 Norte 0 -- -- 75
2020-10-13 08:00:00 10.2 4 Norte 9 Nordeste 0 -- -- 73
2020-10-13 07:00:00 9.1 3 Norte 6 Nordeste 0 -- -- 76
2020-10-13 06:00:00 10.1 3 Este 6 Nordeste 0 -- -- 71
2020-10-13 05:00:00 10.7 5 Nordeste 8 Nordeste 0 -- -- 67
2020-10-13 04:00:00 -- -- -- -- -- -- -- -- --
2020-10-13 03:00:00 11.1 6 Este 9 Este 0 -- -- 64
2020-10-13 02:00:00 11.2 3 Este 8 Sudeste 0 -- -- 61
2020-10-13 01:00:00 -- -- -- -- -- -- -- -- --
2020-10-13 00:00:00 13.4 4 Este 9 Este 0 -- -- 56
2020-10-12 23:00:00 14.6 4 Nordeste 6 Este 0 -- -- 58
2020-10-12 22:00:00 16.1 0 Calma 5 Noroeste 0 -- -- 63
2020-10-12 21:00:00 17.9 3 Noroeste 5 Oeste 0 -- -- 46
2020-10-12 20:00:00 23.1 4 Nordeste 19 Nordeste 0 -- -- 28
2020-10-12 19:00:00 25.3 12 Nordeste 23 Nordeste 0 -- -- 26
2020-10-12 18:00:00 -- -- -- -- -- -- -- -- --
2020-10-12 17:00:00 26.3 12 Norte 27 Norte 0 -- -- 23
2020-10-12 16:00:00 26.1 13 Norte 27 Nordeste 0 -- -- 26
2020-10-12 15:00:00 25.6 12 Nordeste 29 Nordeste 0 -- -- 29
2020-10-12 14:00:00 24.4 14 Norte 26 Nordeste 0 -- -- 32
2020-10-12 13:00:00 22.7 15 Nordeste 32 Nordeste 0 -- -- 35
2020-10-12 12:00:00 20.7 17 Nordeste 34 Nordeste 0 -- -- 38
2020-10-12 11:00:00 18.3 14 Nordeste 27 Nordeste 0 -- -- 42
2020-10-12 10:00:00 16.1 14 Nordeste 28 Nordeste 0 -- -- 46
2020-10-12 09:00:00 14.3 12 Nordeste 29 Nordeste 0 -- -- 49
2020-10-12 08:00:00 14.7 18 Nordeste 41 Nordeste 0 -- -- 46
2020-10-12 07:00:00 16.1 22 Nordeste 42 Norte 0 -- -- 43
2020-10-12 06:00:00 16.8 18 Nordeste 31 Nordeste 0 -- -- 45
2020-10-12 05:00:00 16.6 16 Nordeste 28 Nordeste 0 -- -- 46
2020-10-12 04:00:00 -- -- -- -- -- -- -- -- --
2020-10-12 03:00:00 16.7 13 Nordeste 24 Nordeste 0 -- -- 63
2020-10-12 02:00:00 16.7 5 Nordeste 10 Nordeste 0 -- -- 94
2020-10-12 01:00:00 17.8 0 Calma 10 Norte 0 -- -- 93
2020-10-12 00:00:00 19.2 3 Norte 12 Noroeste 0 -- -- 94
2020-10-11 23:00:00 19.7 6 Noroeste 15 Noroeste 0 -- -- 95
2020-10-11 22:00:00 19.8 8 Noroeste 17 Oeste 0 -- -- 93
2020-10-11 21:00:00 -- -- -- -- -- -- -- -- --
2020-10-11 20:00:00 -- -- -- -- -- -- -- -- --
2020-10-11 19:00:00 22.5 8 Oeste 15 Oeste 0 -- -- 80
2020-10-11 18:00:00 23 11 Oeste 20 Oeste 0 -- -- 77
2020-10-11 17:00:00 23.1 14 Oeste 21 Oeste 0 -- -- 77
2020-10-11 16:00:00 23.5 15 Oeste 21 Oeste 0 -- -- 78
2020-10-11 15:00:00 23.5 14 Oeste 19 Oeste 0 -- -- 76
2020-10-11 14:00:00 23.5 13 Oeste 18 Oeste 0 -- -- 74
2020-10-11 13:00:00 23 11 Oeste 14 Oeste 0 -- -- 74
2020-10-11 12:00:00 23.1 4 Norte 9 Noroeste 0 -- -- 73
2020-10-11 11:00:00 21.3 4 Este 9 Este 0 -- -- 79
2020-10-11 10:00:00 18.1 4 Este 6 Este 0 -- -- 96
2020-10-11 09:00:00 14.9 4 Sudeste 6 Sudeste 0 -- -- 98
2020-10-11 08:00:00 14.7 3 Este 5 Sudeste 0 -- -- 97
2020-10-11 07:00:00 15.3 4 Sudeste 6 Este 0 -- -- 97
2020-10-11 06:00:00 15.2 4 Sudeste 6 Sudeste 0 -- -- 97
2020-10-11 05:00:00 15.6 5 Sudeste 6 Sudeste 0 -- -- 98
2020-10-11 04:00:00 15.7 4 Sudeste 5 Sudeste 0 -- -- 97
2020-10-11 03:00:00 15.9 4 Sudeste 5 Sudeste 0 -- -- 97
2020-10-11 02:00:00 16.4 2 Este 4 Sudeste 0 -- -- 96
2020-10-11 01:00:00 16.7 4 Sudeste 5 Sudeste 0 -- -- 96
2020-10-11 00:00:00 17.2 3 Sudeste 4 Sur 0 -- -- 95
2020-10-10 23:00:00 17.8 0 Calma 4 Sur 0 -- -- 94
2020-10-10 22:00:00 18.8 3 Sudoeste 8 Oeste 0 -- -- 94
2020-10-10 21:00:00 19.4 5 Oeste 9 Sudoeste 0 -- -- 93
2020-10-10 20:00:00 20.2 5 Oeste 13 Oeste 0 -- -- 89
2020-10-10 19:00:00 21.1 9 Oeste 19 Oeste 0 -- -- 86
2020-10-10 18:00:00 22.2 13 Oeste 19 Oeste 0 -- -- 81
2020-10-10 17:00:00 23.1 12 Oeste 19 Oeste 0 -- -- 76
2020-10-10 16:00:00 23.1 13 Oeste 20 Oeste 0 -- -- 74
2020-10-10 15:00:00 23.4 15 Oeste 21 Oeste 0 -- -- 72
2020-10-10 14:00:00 24.5 11 Oeste 16 Oeste 0 -- -- 66
2020-10-10 13:00:00 23.8 8 Oeste 14 Oeste 0 -- -- 65
2020-10-10 12:00:00 22.1 5 Norte 8 Este 0 -- -- 71
2020-10-10 11:00:00 19.3 4 Nordeste 8 Norte 0 -- -- 81
2020-10-10 10:00:00 17.6 3 Norte 10 Norte 0 -- -- 89
2020-10-10 09:00:00 16.3 3 Norte 12 Este 0 -- -- 90
2020-10-10 08:00:00 16.5 8 Este 14 Sudeste 0 -- -- 89
2020-10-10 07:00:00 16.1 5 Este 11 Sudeste 0 -- -- 91
2020-10-10 06:00:00 15.8 5 Sudeste 9 Sudeste 0 -- -- 93
2020-10-10 05:00:00 16.4 5 Sudeste 9 Sudeste 0 -- -- 91
2020-10-10 04:00:00 16.3 8 Sudeste 9 Sudeste 0 -- -- 94
2020-10-10 03:00:00 15.8 4 Sudeste 5 Este 0 -- -- 92
2020-10-10 02:00:00 16.4 4 Este 6 Sudeste 0 -- -- 93
2020-10-10 01:00:00 17 3 Este 6 Este 0 -- -- 93
2020-10-10 00:00:00 17.9 0 Calma 8 Noroeste 0 -- -- 91
2020-10-09 23:00:00 19 3 Oeste 9 Oeste 0 -- -- 91
2020-10-09 22:00:00 18.8 3 Oeste 7 Sudoeste 0 -- -- 86
2020-10-09 21:00:00 19.8 4 Sudoeste 7 Sudoeste 0 -- -- 82
2020-10-09 20:00:00 21.4 6 Sudoeste 12 Noroeste 0 -- -- 74
2020-10-09 19:00:00 22.7 10 Noroeste 17 Oeste 0 -- -- 71
2020-10-09 18:00:00 23.7 9 Oeste 15 Oeste 0 -- -- 69
2020-10-09 17:00:00 24 10 Oeste 16 Oeste 0 -- -- 66
2020-10-09 16:00:00 25.2 10 Noroeste 18 Noroeste 0 -- -- 56
2020-10-09 15:00:00 27 11 Oeste 15 Oeste 0 -- -- 49
2020-10-09 14:00:00 24.6 7 Noroeste 14 Norte 0 -- -- 55
2020-10-09 13:00:00 23.9 6 Noroeste 14 Noroeste 0 -- -- 61
2020-10-09 12:00:00 22.3 4 Norte 8 Norte 0 -- -- 67
2020-10-09 11:00:00 20.9 5 Este 9 Este 0 -- -- 71
2020-10-09 10:00:00 19 7 Este 11 Este 0 -- -- 71
2020-10-09 09:00:00 15.6 5 Sudeste 9 Este 0 -- -- 75
2020-10-09 08:00:00 14.8 4 Este 6 Este 0 -- -- 79
2020-10-09 07:00:00 14.7 3 Sudeste 10 Nordeste 0 -- -- 79
2020-10-09 06:00:00 14.9 3 Este 6 Sudeste 0 -- -- 80
2020-10-09 05:00:00 15.4 3 Este 5 Este 0 -- -- 79
2020-10-09 04:00:00 16.6 0 Calma 7 Nordeste 0 -- -- 77
2020-10-09 03:00:00 17.7 4 Nordeste 5 Norte 0 -- -- 75
2020-10-09 02:00:00 19 6 Norte 14 Norte 0 -- -- 75
2020-10-09 01:00:00 20.1 3 Nordeste 13 Este 0 -- -- 55
2020-10-09 00:00:00 21 9 Este 12 Este 0 -- -- 51
2020-10-08 23:00:00 20.8 7 Sudeste 14 Sudeste 0 -- -- 54
2020-10-08 22:00:00 19.7 3 Este 6 Nordeste 0 -- -- 75
2020-10-08 21:00:00 20.8 2 Noroeste 8 Sudoeste 0 -- -- 76
2020-10-08 20:00:00 22.1 3 Sudoeste 14 Oeste 0 -- -- 70
2020-10-08 19:00:00 23.8 8 Oeste 14 Oeste 0 -- -- 63
2020-10-08 18:00:00 24.8 10 Oeste 24 Sudoeste 0 -- -- 60
2020-10-08 17:00:00 26.7 16 Oeste 23 Sudoeste 0 -- -- 58
2020-10-08 16:00:00 31.9 19 Sudeste 35 Sudeste 0 -- -- 38
2020-10-08 15:00:00 32.2 19 Sudeste 34 Sudeste 0 -- -- 32
2020-10-08 14:00:00 31.2 19 Este 33 Este 0 -- -- 34
2020-10-08 13:00:00 29.6 14 Este 23 Este 0 -- -- 37
2020-10-08 12:00:00 27 11 Nordeste 17 Este 0 -- -- 43
2020-10-08 11:00:00 23.9 7 Nordeste 13 Nordeste 0 -- -- 55
2020-10-08 10:00:00 19 3 Nordeste 8 Nordeste 0 -- -- 77
2020-10-08 09:00:00 15.4 0 Calma 6 Nordeste 0 -- -- 88
2020-10-08 08:00:00 16 3 Norte 8 Norte 0 -- -- 88
2020-10-08 07:00:00 16.3 3 Norte 9 Norte 0 -- -- 86
2020-10-08 06:00:00 15.3 4 Norte 6 Norte 0 -- -- 77
2020-10-08 05:00:00 16.2 4 Este 10 Este 0 -- -- 73
2020-10-08 04:00:00 15.8 5 Este 8 Nordeste 0 -- -- 79
2020-10-08 03:00:00 15.9 3 Sudeste 6 Sudeste 0 -- -- 87
2020-10-08 02:00:00 16.5 2 Sur 7 Sudeste 0 -- -- 89
2020-10-08 01:00:00 16.8 2 Sudeste 6 Sur 0 -- -- 88
2020-10-08 00:00:00 17.2 3 Sur 5 Sudeste 0 -- -- 85
2020-10-07 23:00:00 18 0 Calma 3 Nordeste 0 -- -- 81
2020-10-07 22:00:00 19.4 2 Noroeste 6 Sudeste 0 -- -- 79
2020-10-07 21:00:00 21 3 Sur 6 Oeste 0 -- -- 73
2020-10-07 20:00:00 23.4 4 Oeste 9 Sur 0 -- -- 67
2020-10-07 19:00:00 25.3 6 Oeste 12 Oeste 0 -- -- 61
2020-10-07 18:00:00 25 8 Oeste 14 Noroeste 0 -- -- 66
2020-10-07 17:00:00 24.9 10 Oeste 17 Oeste 0 -- -- 65
2020-10-07 16:00:00 25.6 9 Oeste 17 Oeste 0 -- -- 62
2020-10-07 15:00:00 25.3 12 Oeste 16 Oeste 0 -- -- 65
2020-10-07 14:00:00 28.1 10 Noroeste 17 Norte 0 -- -- 53
2020-10-07 13:00:00 26.7 8 Norte 20 Nordeste 0 -- -- 43
2020-10-07 12:00:00 24.2 8 Nordeste 19 Nordeste 0 -- -- 48
2020-10-07 11:00:00 21 9 Norte 16 Nordeste 0 -- -- 61
2020-10-07 10:00:00 18 3 Norte 6 Norte 0 -- -- 78
2020-10-07 09:00:00 13.9 3 Nordeste 5 Nordeste 0 -- -- 93
2020-10-07 08:00:00 13.3 3 Norte 5 Norte 0 -- -- 90
2020-10-07 07:00:00 13.9 2 Norte 6 Este 0 -- -- 89
2020-10-07 06:00:00 14.3 4 Este 6 Este 0 -- -- 89
2020-10-07 05:00:00 15 5 Este 8 Este 0 -- -- 89
2020-10-07 04:00:00 15 0 Calma 6 Este -- -- -- 87
2020-10-07 03:00:00 15.4 3 Este 8 Sudeste 0 -- -- 88
2020-10-07 02:00:00 16.2 4 Este 6 Sudeste 0 -- -- 88
2020-10-07 01:00:00 17.6 4 Sudeste 8 Norte 0 -- -- 85
2020-10-07 00:00:00 18.8 4 Norte 10 Norte 0 -- -- 85
2020-10-06 23:00:00 19.3 4 Noroeste 13 Noroeste 0 -- -- 84
2020-10-06 22:00:00 19.5 8 Noroeste 19 Noroeste 0 -- -- 87
2020-10-06 21:00:00 20.1 7 Noroeste 14 Noroeste 0 -- -- 78
2020-10-06 20:00:00 20.6 7 Noroeste 15 Oeste 0 -- -- 77
2020-10-06 19:00:00 22.1 10 Oeste 22 Noroeste 0 -- -- 74
2020-10-06 18:00:00 22.9 14 Oeste 23 Oeste 0 -- -- 65
2020-10-06 17:00:00 22.4 16 Oeste 22 Oeste 0 -- -- 73
2020-10-06 16:00:00 25.8 12 Oeste 27 Nordeste 0 -- -- 60
2020-10-06 15:00:00 27.1 10 Norte 26 Norte 0 -- -- 39
2020-10-06 14:00:00 25.6 9 Norte 22 Nordeste 0 -- -- 43
2020-10-06 13:00:00 24.1 11 Nordeste 21 Nordeste 0 -- -- 44
2020-10-06 12:00:00 22.1 8 Norte 16 Norte 0 -- -- 52
2020-10-06 11:00:00 19.5 7 Norte 15 Nordeste 0 -- -- 61
2020-10-06 10:00:00 17.2 6 Nordeste 12 Nordeste 0 -- -- 65
2020-10-06 09:00:00 14.7 4 Norte 9 Norte 0 -- -- 80
2020-10-06 08:00:00 14.3 3 Norte 8 Norte 0 -- -- 80
2020-10-06 07:00:00 14 4 Norte 8 Sudeste 0 -- -- 78
2020-10-06 06:00:00 15.7 5 Norte 10 Norte 0 -- -- 74
2020-10-06 05:00:00 16.4 5 Norte 17 Norte 0 -- -- 69
2020-10-06 04:00:00 16.4 5 Norte 15 Nordeste 0 -- -- 70
2020-10-06 03:00:00 17.5 6 Norte 15 Noroeste 0 -- -- 66
2020-10-06 02:00:00 17.5 7 Noroeste 14 Norte 0 -- -- 71
2020-10-06 01:00:00 17.8 5 Norte 13 Norte 0 -- -- 75
2020-10-06 00:00:00 18.7 7 Noroeste 14 Oeste 0 -- -- 83
2020-10-05 23:00:00 18.9 9 Noroeste 17 Oeste 0 -- -- 86
2020-10-05 22:00:00 18.4 8 Oeste 16 Sudoeste 0 -- -- 87
2020-10-05 21:00:00 18.9 10 Sudoeste 22 Sudoeste 0 -- -- 84
2020-10-05 20:00:00 19.4 12 Sudoeste 25 Sudoeste 0 -- -- 76
2020-10-05 19:00:00 20.4 19 Oeste 29 Oeste 0 -- -- 74
2020-10-05 18:00:00 20.9 17 Oeste 29 Oeste 0 -- -- 71
2020-10-05 17:00:00 21.8 18 Oeste 29 Oeste 0 -- -- 62
2020-10-05 16:00:00 20.9 17 Oeste 32 Oeste 0 -- -- 66
2020-10-05 15:00:00 21 20 Oeste 32 Noroeste 0 -- -- 67
2020-10-05 14:00:00 20.4 23 Oeste 32 Oeste 0 -- -- 67
2020-10-05 13:00:00 19.5 18 Oeste 26 Oeste 0 -- -- 71
2020-10-05 12:00:00 18.6 12 Noroeste 18 Oeste 0 -- -- 68
2020-10-05 11:00:00 17.3 8 Noroeste 19 Norte 0 -- -- 72
2020-10-05 10:00:00 16.1 5 Norte 20 Noroeste 0 -- -- 77
2020-10-05 09:00:00 15.5 9 Noroeste 22 Noroeste 0 -- -- 79
2020-10-05 08:00:00 15.6 9 Noroeste 23 Noroeste 0 -- -- 77
2020-10-05 07:00:00 16 13 Noroeste 27 Noroeste 0 -- -- 74
2020-10-05 06:00:00 16.3 10 Noroeste 29 Noroeste 0 -- -- 73
2020-10-05 05:00:00 16.8 13 Noroeste 30 Noroeste 0 -- -- 70
2020-10-05 04:00:00 17.3 15 Noroeste 34 Noroeste 0 -- -- 69
2020-10-05 03:00:00 17.7 19 Noroeste 33 Noroeste 0 -- -- 69
2020-10-05 02:00:00 18.3 17 Noroeste 32 Noroeste 0 -- -- 72
2020-10-05 01:00:00 18.8 10 Oeste 17 Oeste 0 -- -- 79
2020-10-05 00:00:00 18.7 10 Oeste 17 Oeste 0 -- -- 82
2020-10-04 23:00:00 18.9 12 Oeste 21 Oeste 0 -- -- 89
2020-10-04 22:00:00 18.8 13 Oeste 27 Oeste 0 -- -- 90
2020-10-04 21:00:00 19.2 18 Oeste 29 Oeste 0 -- -- 88
2020-10-04 20:00:00 19.5 17 Oeste 28 Sudoeste 0 -- -- 85
2020-10-04 19:00:00 20.3 20 Sudoeste 32 Sudoeste 0 -- -- 78
2020-10-04 18:00:00 21.6 20 Oeste 32 Sudoeste 0 -- -- 70
2020-10-04 17:00:00 21.4 19 Oeste 32 Sudoeste 0 -- -- 67
2020-10-04 16:00:00 21.5 18 Oeste 27 Sudoeste 0 -- -- 63
2020-10-04 15:00:00 20.6 17 Oeste 23 Sudoeste 0 -- -- 66
2020-10-04 14:00:00 20.3 14 Oeste 21 Oeste 0 -- -- 67
2020-10-04 13:00:00 19.8 11 Oeste 19 Sudoeste 0 -- -- 64
2020-10-04 12:00:00 19.1 8 Oeste 13 Sudoeste 0 -- -- 60
2020-10-04 11:00:00 17.8 3 Norte 8 Norte 0 -- -- 67
2020-10-04 10:00:00 14.9 0 Calma 4 Noroeste 0 -- -- 82
2020-10-04 09:00:00 11.4 0 Calma 6 Este 0 -- -- 88
2020-10-04 08:00:00 12.2 4 Nordeste 9 Norte 0 -- -- 86
2020-10-04 07:00:00 13.7 4 Norte 9 Norte 0 -- -- 81
2020-10-04 06:00:00 14.6 3 Norte 11 Nordeste 0 -- -- 79
2020-10-04 05:00:00 15.7 5 Nordeste 15 Norte 0 -- -- 76
2020-10-04 04:00:00 16.7 8 Noroeste 23 Norte 0 -- -- 75
2020-10-04 03:00:00 17.2 11 Noroeste 25 Noroeste 0 -- -- 74
2020-10-04 02:00:00 17.8 10 Noroeste 24 Noroeste 0 -- -- 75
2020-10-04 01:00:00 18.2 14 Oeste 27 Noroeste 0 -- -- 80
2020-10-04 00:00:00 18.4 13 Oeste 24 Sudoeste 0 -- -- 81
2020-10-03 23:00:00 18.6 15 Oeste 29 Sudoeste 0 -- -- 76
2020-10-03 22:00:00 18.6 19 Oeste 32 Sudoeste 0 -- -- 69
2020-10-03 21:00:00 18.5 19 Oeste 34 Sudoeste 0 -- -- 69
2020-10-03 20:00:00 18.6 21 Oeste 34 Sudoeste 0 -- -- 67
2020-10-03 19:00:00 19.9 21 Sudoeste 33 Sudoeste 0 -- -- 60
2020-10-03 18:00:00 20.7 19 Sudoeste 29 Oeste 0 -- -- 54
2020-10-03 17:00:00 21 20 Oeste 29 Sudoeste 0 -- -- 53
2020-10-03 16:00:00 20.8 20 Oeste 33 Sudoeste 0 -- -- 56
2020-10-03 15:00:00 20.3 22 Oeste 30 Oeste 0 -- -- 56
2020-10-03 14:00:00 19.6 17 Oeste 24 Oeste 0 -- -- 58
2020-10-03 13:00:00 18.7 16 Oeste 24 Oeste 0 -- -- 64
2020-10-03 12:00:00 18.1 16 Noroeste 25 Noroeste 0 -- -- 66
2020-10-03 11:00:00 17.1 13 Noroeste 32 Noroeste 0 -- -- 71
2020-10-03 10:00:00 16.4 15 Noroeste 30 Noroeste 0 -- -- 73
2020-10-03 09:00:00 15.4 15 Noroeste 33 Norte 0 -- -- 76
2020-10-03 08:00:00 15.3 16 Noroeste 32 Noroeste 0 -- -- 74
2020-10-03 07:00:00 15.6 21 Noroeste 37 Oeste 0 -- -- 74
2020-10-03 06:00:00 15.9 22 Noroeste 38 Oeste 0 -- -- 70
2020-10-03 05:00:00 16 27 Noroeste 45 Oeste 0 -- -- 68
2020-10-03 04:00:00 16.3 23 Noroeste 36 Oeste 0 -- -- 63
2020-10-03 03:00:00 16.5 21 Noroeste 39 Noroeste 0 -- -- 62
2020-10-03 02:00:00 16.9 23 Noroeste 37 Noroeste 0 -- -- 61
2020-10-03 01:00:00 17.5 28 Oeste 43 Oeste 0 -- -- 59
2020-10-03 00:00:00 18 30 Oeste 47 Noroeste 0 -- -- 58
2020-10-02 23:00:00 18.7 25 Noroeste 43 Noroeste 0 -- -- 58
2020-10-02 22:00:00 19.8 22 Noroeste 41 Noroeste 0 -- -- 59
2020-10-02 21:00:00 20.3 27 Oeste 44 Oeste 0 -- -- 71
2020-10-02 20:00:00 20.4 23 Oeste 54 Oeste 0 -- -- 73
2020-10-02 19:00:00 21.1 26 Oeste 44 Oeste 0 -- -- 77
2020-10-02 18:00:00 21.8 27 Oeste 53 Oeste 0 -- -- 86
2020-10-02 17:00:00 22 33 Oeste 62 Sudoeste 0 -- -- 84
2020-10-02 16:00:00 23.3 37 Sudoeste 60 Sudoeste 0 -- -- 79
2020-10-02 15:00:00 23.1 32 Sudoeste 58 Sudoeste 0 -- -- 83
2020-10-02 14:00:00 21.4 29 Sudoeste 57 Sudoeste 0 -- -- 88
2020-10-02 13:00:00 22.5 30 Sudoeste 48 Sudoeste 0 -- -- 77
2020-10-02 12:00:00 22 28 Sudoeste 45 Sudoeste 0 -- -- 79
2020-10-02 11:00:00 20.3 23 Oeste 38 Oeste 0 -- -- 85
2020-10-02 10:00:00 19.9 19 Sudoeste 32 Sudoeste 0 -- -- 82
2020-10-02 09:00:00 19.2 18 Sudoeste 29 Sudoeste 0 -- -- 82
2020-10-02 08:00:00 18.6 14 Sudoeste 27 Sudoeste 0 -- -- 79
2020-10-02 07:00:00 18.3 16 Oeste 27 Oeste 0 -- -- 80
2020-10-02 06:00:00 18.1 16 Oeste 30 Oeste 0 -- -- 81
2020-10-02 05:00:00 18.4 22 Oeste 36 Oeste 0 -- -- 79
2020-10-02 04:00:00 18.7 20 Oeste 35 Oeste 0 -- -- 80
2020-10-02 03:00:00 18.9 17 Oeste 33 Oeste 0 -- -- 80
2020-10-02 02:00:00 19.3 21 Oeste 39 Oeste 0 -- -- 77
2020-10-02 01:00:00 20 23 Oeste 36 Oeste 0 -- -- 74
2020-10-02 00:00:00 20.8 23 Noroeste 34 Noroeste 0 -- -- 73
2020-10-01 23:00:00 21.2 18 Noroeste 26 Oeste 0 -- -- 77
2020-10-01 22:00:00 21.2 15 Sudoeste 27 Sudoeste 0 -- -- 87
2020-10-01 21:00:00 21.1 18 Sudoeste 32 Sudoeste 0 -- -- 88
2020-10-01 20:00:00 21.3 19 Sudoeste 34 Oeste 0 -- -- 87
2020-10-01 19:00:00 22.4 22 Sudoeste 44 Sudoeste 0 -- -- 78
2020-10-01 18:00:00 22.8 28 Sudoeste 42 Sudoeste 0 -- -- 74
2020-10-01 17:00:00 23.2 26 Sudoeste 38 Sudoeste 0 -- -- 72
2020-10-01 16:00:00 24 20 Oeste 30 Sudoeste 0 -- -- 70
2020-10-01 15:00:00 23.1 18 Oeste 30 Noroeste 0 -- -- 68
2020-10-01 14:00:00 22.3 21 Oeste 31 Oeste 0 -- -- 68
2020-10-01 13:00:00 20.6 19 Oeste 28 Oeste 0 -- -- 71
2020-10-01 12:00:00 19.5 16 Oeste 27 Oeste 0 -- -- 73
2020-10-01 11:00:00 18.7 16 Oeste 28 Noroeste 0 -- -- 77
2020-10-01 10:00:00 17.7 15 Noroeste 28 Oeste 0 -- -- 80
2020-10-01 09:00:00 17.2 18 Oeste 27 Noroeste 0 -- -- 84
2020-10-01 08:00:00 17.5 13 Oeste 22 Oeste 0 -- -- 84
2020-10-01 07:00:00 17.9 14 Noroeste 26 Oeste 0 -- -- 88
2020-10-01 06:00:00 18.7 12 Noroeste 18 Oeste 0 -- -- 88
2020-10-01 05:00:00 19.1 8 Noroeste 15 Noroeste 0 -- -- 86
2020-10-01 04:00:00 19.2 8 Noroeste 14 Noroeste 0 -- -- 88
2020-10-01 03:00:00 17.3 2 Sur 6 Sur 0 -- -- 97
2020-10-01 02:00:00 18.1 3 Sur 5 Sur 0 -- -- 96
2020-10-01 01:00:00 18.6 4 Sur 5 Sur 0 -- -- 96
2020-10-01 00:00:00 20.1 2 Oeste 9 Oeste 0 -- -- 93
2020-09-30 23:00:00 21.1 6 Oeste 12 Oeste 0 -- -- 94
2020-09-30 22:00:00 21.2 7 Oeste 17 Oeste 0 -- -- 93
2020-09-30 21:00:00 21.3 6 Oeste 13 Oeste 0 -- -- 91
2020-09-30 20:00:00 21.9 8 Oeste 17 Oeste 0 -- -- 89
2020-09-30 19:00:00 23.2 8 Oeste 22 Sudoeste 0 -- -- 83
2020-09-30 18:00:00 24 17 Oeste 23 Oeste 0 -- -- 78
2020-09-30 17:00:00 24.9 13 Sudoeste 26 Sudoeste 0 -- -- 73
2020-09-30 16:00:00 25.4 14 Sudoeste 23 Sudoeste 0 -- -- 71
2020-09-30 15:00:00 25.6 12 Sur 26 Sudoeste 0 -- -- 72
2020-09-30 14:00:00 25.7 11 Sudoeste 24 Sur 0 -- -- 72
2020-09-30 13:00:00 24.8 15 Sur 24 Sur 0 -- -- 71
2020-09-30 12:00:00 24.4 8 Sur 16 Sur 0 -- -- 70
2020-09-30 11:00:00 22.3 3 Sur 8 Sudeste 0 -- -- 78
2020-09-30 10:00:00 20.2 4 Sudeste 12 Sur 0 -- -- 86
2020-09-30 09:00:00 18.6 5 Sur 15 Sudeste 0 -- -- 89
2020-09-30 08:00:00 18.8 10 Sur 17 Sur 0 -- -- 87
2020-09-30 07:00:00 17.7 7 Sur 12 Sur 0 -- -- 89
2020-09-30 06:00:00 18.3 8 Sur 12 Sudeste 0 -- -- 87
2020-09-30 05:00:00 18.2 8 Sur 12 Sur 0 -- -- 86
2020-09-30 04:00:00 18.5 3 Sudoeste 14 Sur 0 -- -- 84
2020-09-30 03:00:00 18.2 7 Sur 10 Sur 0 -- -- 87
2020-09-30 02:00:00 19 5 Sur 14 Sur 0 -- -- 82
2020-09-30 01:00:00 19.4 7 Sudoeste 10 Sudoeste 0 -- -- 85
2020-09-30 00:00:00 19.4 5 Sur 8 Sur 0 -- -- 86